createdAt,value
2017-01-17T00:00:27.125Z,1028.04
2017-01-17T00:01:36.464Z,1028.01
2017-01-17T00:02:46.330Z,1028.01
2017-01-17T00:03:55.816Z,1028.05
2017-01-17T00:05:05.321Z,1028.08
2017-01-17T00:06:14.520Z,1028.06
2017-01-17T00:07:23.603Z,1028.1
2017-01-17T00:08:32.280Z,1028.1
2017-01-17T00:09:41.357Z,1028.06
2017-01-17T00:10:50.080Z,1028.1
2017-01-17T00:11:59.483Z,1028.11
2017-01-17T00:13:08.161Z,1028.12
2017-01-17T00:14:18.020Z,1028.09
2017-01-17T00:15:27.485Z,1028.1
2017-01-17T00:16:36.576Z,1028.07
2017-01-17T00:17:46.431Z,1028.06
2017-01-17T00:18:55.119Z,1028.07
2017-01-17T00:20:04.204Z,1028.07
2017-01-17T00:21:12.906Z,1028.07
2017-01-17T00:22:22.365Z,1028.09
2017-01-17T00:23:31.586Z,1028.09
2017-01-17T00:24:40.315Z,1028.07
2017-01-17T00:25:49.631Z,1028.08
2017-01-17T00:26:58.769Z,1028.1
2017-01-17T00:28:08.325Z,1028.1
2017-01-17T00:29:18.282Z,1028.11
2017-01-17T00:30:27.119Z,1028.17
2017-01-17T00:31:36.267Z,1028.19
2017-01-17T00:32:45.759Z,1028.18
2017-01-17T00:33:54.463Z,1028.22
2017-01-17T00:35:03.931Z,1028.21
2017-01-17T00:36:13.421Z,1028.23
2017-01-17T00:37:22.906Z,1028.23
2017-01-17T00:38:32.071Z,1028.28
2017-01-17T00:39:41.201Z,1028.27
2017-01-17T00:40:49.983Z,1028.34
2017-01-17T00:41:58.721Z,1028.32
2017-01-17T00:43:08.684Z,1028.34
2017-01-17T00:44:18.614Z,1028.36
2017-01-17T00:45:28.131Z,1028.36
2017-01-17T00:46:37.387Z,1028.41
2017-01-17T00:47:46.208Z,1028.39
2017-01-17T00:48:55.000Z,1028.42
2017-01-17T00:50:04.815Z,1028.48
2017-01-17T00:51:14.374Z,1028.51
2017-01-17T00:52:23.390Z,1028.55
2017-01-17T00:53:32.515Z,1028.56
2017-01-17T00:54:41.206Z,1028.54
2017-01-17T00:55:50.292Z,1028.57
2017-01-17T00:56:59.366Z,1028.52
2017-01-17T00:58:08.188Z,1028.54
2017-01-17T00:59:16.970Z,1028.59
2017-01-17T01:00:26.440Z,1028.61
2017-01-17T01:01:35.533Z,1028.61
2017-01-17T01:02:44.740Z,1028.6
2017-01-17T01:03:54.413Z,1028.59
2017-01-17T01:05:04.822Z,1028.62
2017-01-17T01:06:14.296Z,1028.64
2017-01-17T01:07:23.022Z,1028.65
2017-01-17T01:08:32.121Z,1028.67
2017-01-17T01:09:41.083Z,1028.63
2017-01-17T01:10:49.791Z,1028.66
2017-01-17T01:11:58.522Z,1028.65
2017-01-17T01:13:07.240Z,1028.63
2017-01-17T01:14:18.044Z,1028.62
2017-01-17T01:15:27.662Z,1028.65
2017-01-17T01:16:36.784Z,1028.66
2017-01-17T01:17:46.500Z,1028.72
2017-01-17T01:18:55.189Z,1028.66
2017-01-17T01:20:04.254Z,1028.65
2017-01-17T01:21:13.693Z,1028.7
2017-01-17T01:22:23.205Z,1028.77
2017-01-17T01:23:32.914Z,1028.8
2017-01-17T01:24:41.996Z,1028.82
2017-01-17T01:25:51.057Z,1028.82
2017-01-17T01:27:00.521Z,1028.82
2017-01-17T01:28:09.228Z,1028.85
2017-01-17T01:29:18.348Z,1028.92
2017-01-17T01:30:27.064Z,1028.9
2017-01-17T01:31:36.214Z,1028.93
2017-01-17T01:32:45.313Z,1028.9
2017-01-17T01:33:54.013Z,1028.9
2017-01-17T01:35:03.096Z,1028.94
2017-01-17T01:36:12.173Z,1028.96
2017-01-17T01:37:20.907Z,1028.96
2017-01-17T01:38:29.988Z,1028.97
2017-01-17T01:39:39.065Z,1029.03
2017-01-17T01:40:48.145Z,1029
2017-01-17T01:41:58.017Z,1028.94
2017-01-17T01:43:07.501Z,1028.96
2017-01-17T01:44:16.979Z,1029
2017-01-17T01:45:26.457Z,1029.04
2017-01-17T01:46:35.957Z,1029.06
2017-01-17T01:47:44.636Z,1029.04
2017-01-17T01:48:54.898Z,1029.06
2017-01-17T01:50:05.282Z,1029.07
2017-01-17T01:51:15.152Z,1029.04
2017-01-17T01:52:23.897Z,1029.08
2017-01-17T01:53:32.605Z,1029.19
2017-01-17T01:54:42.079Z,1029.2
2017-01-17T01:55:51.934Z,1029.23
2017-01-17T01:57:01.417Z,1029.26
2017-01-17T01:58:10.521Z,1029.23
2017-01-17T01:59:20.015Z,1029.26
2017-01-17T02:00:29.493Z,1029.27
2017-01-17T02:01:39.117Z,1029.27
2017-01-17T02:02:48.626Z,1029.3
2017-01-17T02:03:58.113Z,1029.29
2017-01-17T02:05:06.846Z,1029.28
2017-01-17T02:06:15.970Z,1029.32
2017-01-17T02:07:25.591Z,1029.29
2017-01-17T02:08:34.669Z,1029.35
2017-01-17T02:09:43.393Z,1029.38
2017-01-17T02:10:52.513Z,1029.41
2017-01-17T02:12:02.023Z,1029.46
2017-01-17T02:13:11.272Z,1029.44
2017-01-17T02:14:20.417Z,1029.46
2017-01-17T02:15:30.272Z,1029.51
2017-01-17T02:16:38.982Z,1029.51
2017-01-17T02:17:48.075Z,1029.57
2017-01-17T02:18:57.459Z,1029.62
2017-01-17T02:20:06.936Z,1029.6
2017-01-17T02:21:16.010Z,1029.59
2017-01-17T02:22:25.087Z,1029.6
2017-01-17T02:23:34.171Z,1029.63
2017-01-17T02:24:42.983Z,1029.6
2017-01-17T02:25:52.055Z,1029.61
2017-01-17T02:27:01.124Z,1029.62
2017-01-17T02:28:10.241Z,1029.58
2017-01-17T02:29:18.960Z,1029.55
2017-01-17T02:30:28.407Z,1029.57
2017-01-17T02:31:37.900Z,1029.62
2017-01-17T02:32:46.977Z,1029.63
2017-01-17T02:33:56.052Z,1029.67
2017-01-17T02:35:05.510Z,1029.65
2017-01-17T02:36:14.981Z,1029.67
2017-01-17T02:37:23.662Z,1029.68
2017-01-17T02:38:32.736Z,1029.64
2017-01-17T02:39:41.799Z,1029.68
2017-01-17T02:40:50.915Z,1029.67
2017-01-17T02:42:00.586Z,1029.61
2017-01-17T02:43:09.267Z,1029.63
2017-01-17T02:44:18.336Z,1029.66
2017-01-17T02:45:27.441Z,1029.63
2017-01-17T02:46:36.166Z,1029.7
2017-01-17T02:47:45.770Z,1029.68
2017-01-17T02:48:55.646Z,1029.67
2017-01-17T02:50:04.354Z,1029.73
2017-01-17T02:51:14.484Z,1029.66
2017-01-17T02:52:23.194Z,1029.69
2017-01-17T02:53:33.063Z,1029.7
2017-01-17T02:54:42.150Z,1029.69
2017-01-17T02:55:51.251Z,1029.72
2017-01-17T02:57:00.307Z,1029.73
2017-01-17T02:58:09.785Z,1029.74
2017-01-17T02:59:19.223Z,1029.8
2017-01-17T03:00:29.068Z,1029.75
2017-01-17T03:01:38.157Z,1029.81
2017-01-17T03:02:47.219Z,1029.82
2017-01-17T03:03:55.918Z,1029.83
2017-01-17T03:05:05.375Z,1029.82
2017-01-17T03:06:14.448Z,1029.8
2017-01-17T03:07:23.533Z,1029.81
2017-01-17T03:08:32.233Z,1029.81
2017-01-17T03:09:41.341Z,1029.83
2017-01-17T03:10:50.413Z,1029.83
2017-01-17T03:11:59.115Z,1029.84
2017-01-17T03:13:08.564Z,1029.85
2017-01-17T03:14:17.641Z,1029.88
2017-01-17T03:15:26.711Z,1029.88
2017-01-17T03:16:35.931Z,1029.85
2017-01-17T03:17:44.612Z,1029.89
2017-01-17T03:18:53.712Z,1029.88
2017-01-17T03:20:02.790Z,1029.91
2017-01-17T03:21:12.282Z,1029.87
2017-01-17T03:22:21.141Z,1029.92
2017-01-17T03:23:30.212Z,1029.95
2017-01-17T03:24:39.669Z,1030
2017-01-17T03:25:48.339Z,1030.03
2017-01-17T03:26:57.081Z,1030.04
2017-01-17T03:28:06.197Z,1030.09
2017-01-17T03:29:15.269Z,1030.11
2017-01-17T03:30:24.015Z,1030.15
2017-01-17T03:31:33.484Z,1030.12
2017-01-17T03:32:42.563Z,1030.14
2017-01-17T03:33:51.354Z,1030.12
2017-01-17T03:35:01.204Z,1030.13
2017-01-17T03:36:10.671Z,1030.1
2017-01-17T03:37:20.907Z,1030.11
2017-01-17T03:38:29.985Z,1030.12
2017-01-17T03:39:39.403Z,1030.12
2017-01-17T03:40:49.147Z,1030.17
2017-01-17T03:41:57.826Z,1030.15
2017-01-17T03:43:06.931Z,1030.17
2017-01-17T03:44:15.657Z,1030.21
2017-01-17T03:45:25.262Z,1030.22
2017-01-17T03:46:34.719Z,1030.22
2017-01-17T03:47:43.791Z,1030.25
2017-01-17T03:48:52.505Z,1030.26
2017-01-17T03:50:01.576Z,1030.22
2017-01-17T03:51:10.715Z,1030.24
2017-01-17T03:52:19.385Z,1030.23
2017-01-17T03:53:28.073Z,1030.27
2017-01-17T03:54:37.162Z,1030.23
2017-01-17T03:55:46.232Z,1030.21
2017-01-17T03:56:55.459Z,1030.17
2017-01-17T03:58:04.152Z,1030.19
2017-01-17T03:59:12.864Z,1030.21
2017-01-17T04:00:21.986Z,1030.2
2017-01-17T04:01:30.686Z,1030.18
2017-01-17T04:02:39.720Z,1030.22
2017-01-17T04:03:48.401Z,1030.2
2017-01-17T04:04:57.487Z,1030.21
2017-01-17T04:06:07.353Z,1030.25
2017-01-17T04:07:16.869Z,1030.27
2017-01-17T04:08:25.716Z,1030.26
2017-01-17T04:09:35.172Z,1030.26
2017-01-17T04:10:44.237Z,1030.24
2017-01-17T04:11:53.358Z,1030.23
2017-01-17T04:13:02.096Z,1030.21
2017-01-17T04:14:12.191Z,1030.22
2017-01-17T04:15:21.283Z,1030.17
2017-01-17T04:16:30.034Z,1030.17
2017-01-17T04:17:39.096Z,1030.17
2017-01-17T04:18:48.157Z,1030.17
2017-01-17T04:19:56.837Z,1030.22
2017-01-17T04:21:05.553Z,1030.18
2017-01-17T04:22:14.262Z,1030.21
2017-01-17T04:23:23.382Z,1030.23
2017-01-17T04:24:32.880Z,1030.25
2017-01-17T04:25:41.699Z,1030.21
2017-01-17T04:26:50.766Z,1030.24
2017-01-17T04:28:00.221Z,1030.28
2017-01-17T04:29:09.677Z,1030.27
2017-01-17T04:30:18.753Z,1030.32
2017-01-17T04:31:27.863Z,1030.32
2017-01-17T04:32:37.735Z,1030.33
2017-01-17T04:33:46.797Z,1030.27
2017-01-17T04:34:55.881Z,1030.31
2017-01-17T04:36:05.340Z,1030.32
2017-01-17T04:37:14.956Z,1030.29
2017-01-17T04:38:24.019Z,1030.31
2017-01-17T04:39:32.704Z,1030.3
2017-01-17T04:40:41.384Z,1030.37
2017-01-17T04:41:50.513Z,1030.34
2017-01-17T04:42:59.976Z,1030.33
2017-01-17T04:44:08.660Z,1030.33
2017-01-17T04:45:17.760Z,1030.36
2017-01-17T04:46:26.841Z,1030.34
2017-01-17T04:47:35.512Z,1030.38
2017-01-17T04:48:44.881Z,1030.35
2017-01-17T04:49:54.380Z,1030.3
2017-01-17T04:51:03.480Z,1030.34
2017-01-17T04:52:12.981Z,1030.36
2017-01-17T04:53:22.459Z,1030.36
2017-01-17T04:54:31.581Z,1030.35
2017-01-17T04:55:41.060Z,1030.38
2017-01-17T04:56:50.124Z,1030.37
2017-01-17T04:57:59.225Z,1030.38
2017-01-17T04:59:08.327Z,1030.35
2017-01-17T05:00:17.692Z,1030.4
2017-01-17T05:01:26.763Z,1030.42
2017-01-17T05:02:35.836Z,1030.46
2017-01-17T05:03:45.294Z,1030.48
2017-01-17T05:04:53.977Z,1030.44
2017-01-17T05:06:03.013Z,1030.49
2017-01-17T05:07:12.468Z,1030.51
2017-01-17T05:08:21.221Z,1030.5
2017-01-17T05:09:30.295Z,1030.5
2017-01-17T05:10:40.142Z,1030.48
2017-01-17T05:11:49.219Z,1030.49
2017-01-17T05:12:58.328Z,1030.45
2017-01-17T05:14:07.011Z,1030.45
2017-01-17T05:15:15.710Z,1030.48
2017-01-17T05:16:25.555Z,1030.4
2017-01-17T05:17:34.419Z,1030.44
2017-01-17T05:18:43.494Z,1030.42
2017-01-17T05:19:52.561Z,1030.44
2017-01-17T05:21:02.031Z,1030.45
2017-01-17T05:22:11.106Z,1030.48
2017-01-17T05:23:20.145Z,1030.47
2017-01-17T05:24:29.222Z,1030.49
2017-01-17T05:25:37.915Z,1030.49
2017-01-17T05:26:46.999Z,1030.5
2017-01-17T05:27:56.450Z,1030.52
2017-01-17T05:29:05.721Z,1030.5
2017-01-17T05:30:14.401Z,1030.47
2017-01-17T05:31:23.489Z,1030.54
2017-01-17T05:32:32.560Z,1030.51
2017-01-17T05:33:41.627Z,1030.53
2017-01-17T05:34:51.060Z,1030.54
2017-01-17T05:36:00.125Z,1030.54
2017-01-17T05:37:09.219Z,1030.53
2017-01-17T05:38:18.673Z,1030.52
2017-01-17T05:39:28.132Z,1030.55
2017-01-17T05:40:37.502Z,1030.54
2017-01-17T05:41:46.582Z,1030.54
2017-01-17T05:42:56.047Z,1030.55
2017-01-17T05:44:05.107Z,1030.58
2017-01-17T05:45:14.169Z,1030.61
2017-01-17T05:46:23.771Z,1030.59
2017-01-17T05:47:32.442Z,1030.62
2017-01-17T05:48:41.907Z,1030.62
2017-01-17T05:49:50.973Z,1030.63
2017-01-17T05:51:00.069Z,1030.66
2017-01-17T05:52:08.905Z,1030.68
2017-01-17T05:53:17.590Z,1030.65
2017-01-17T05:54:26.666Z,1030.7
2017-01-17T05:55:35.727Z,1030.72
2017-01-17T05:56:45.181Z,1030.74
2017-01-17T05:57:54.268Z,1030.72
2017-01-17T05:59:03.737Z,1030.75
2017-01-17T06:00:12.432Z,1030.7
2017-01-17T06:01:21.500Z,1030.74
2017-01-17T06:02:30.568Z,1030.76
2017-01-17T06:03:39.610Z,1030.72
2017-01-17T06:04:48.680Z,1030.8
2017-01-17T06:05:58.189Z,1030.77
2017-01-17T06:07:07.262Z,1030.78
2017-01-17T06:08:15.952Z,1030.86
2017-01-17T06:09:26.189Z,1030.88
2017-01-17T06:10:35.258Z,1030.96
2017-01-17T06:11:44.324Z,1030.94
2017-01-17T06:12:53.801Z,1031.02
2017-01-17T06:14:03.317Z,1031
2017-01-17T06:15:12.924Z,1031.05
2017-01-17T06:16:22.676Z,1031.07
2017-01-17T06:17:31.769Z,1031.1
2017-01-17T06:18:41.630Z,1031.13
2017-01-17T06:19:51.101Z,1031.14
2017-01-17T06:21:00.852Z,1031.14
2017-01-17T06:22:09.561Z,1031.17
2017-01-17T06:23:18.639Z,1031.23
2017-01-17T06:24:27.323Z,1031.21
2017-01-17T06:25:36.788Z,1031.25
2017-01-17T06:26:46.347Z,1031.27
2017-01-17T06:27:55.040Z,1031.25
2017-01-17T06:29:04.495Z,1031.22
2017-01-17T06:30:13.569Z,1031.22
2017-01-17T06:31:22.635Z,1031.24
2017-01-17T06:32:32.059Z,1031.22
2017-01-17T06:33:40.745Z,1031.28
2017-01-17T06:34:49.433Z,1031.28
2017-01-17T06:35:58.495Z,1031.27
2017-01-17T06:37:07.574Z,1031.29
2017-01-17T06:38:16.797Z,1031.3
2017-01-17T06:39:26.763Z,1031.29
2017-01-17T06:40:35.440Z,1031.34
2017-01-17T06:41:44.129Z,1031.34
2017-01-17T06:42:53.218Z,1031.34
2017-01-17T06:44:02.973Z,1031.39
2017-01-17T06:45:12.046Z,1031.39
2017-01-17T06:46:21.122Z,1031.47
2017-01-17T06:47:30.259Z,1031.44
2017-01-17T06:48:38.952Z,1031.5
2017-01-17T06:49:48.075Z,1031.5
2017-01-17T06:50:57.551Z,1031.5
2017-01-17T06:52:06.273Z,1031.57
2017-01-17T06:53:15.032Z,1031.57
2017-01-17T06:54:23.747Z,1031.6
2017-01-17T06:55:33.181Z,1031.62
2017-01-17T06:56:42.314Z,1031.66
2017-01-17T06:57:51.037Z,1031.62
2017-01-17T06:58:59.718Z,1031.65
2017-01-17T07:00:08.816Z,1031.68
2017-01-17T07:01:18.632Z,1031.68
2017-01-17T07:02:27.764Z,1031.64
2017-01-17T07:03:36.466Z,1031.68
2017-01-17T07:04:45.589Z,1031.7
2017-01-17T07:05:54.314Z,1031.68
2017-01-17T07:07:04.084Z,1031.72
2017-01-17T07:08:13.554Z,1031.73
2017-01-17T07:09:23.030Z,1031.72
2017-01-17T07:10:32.124Z,1031.76
2017-01-17T07:11:41.987Z,1031.74
2017-01-17T07:12:51.097Z,1031.75
2017-01-17T07:14:00.207Z,1031.73
2017-01-17T07:15:09.279Z,1031.78
2017-01-17T07:16:18.363Z,1031.78
2017-01-17T07:17:27.054Z,1031.8
2017-01-17T07:18:36.136Z,1031.76
2017-01-17T07:19:44.829Z,1031.7
2017-01-17T07:20:53.940Z,1031.76
2017-01-17T07:22:03.863Z,1031.74
2017-01-17T07:23:12.531Z,1031.67
2017-01-17T07:24:21.642Z,1031.73
2017-01-17T07:25:30.726Z,1031.72
2017-01-17T07:26:40.198Z,1031.75
2017-01-17T07:27:48.890Z,1031.75
2017-01-17T07:28:58.381Z,1031.75
2017-01-17T07:30:07.458Z,1031.73
2017-01-17T07:31:16.581Z,1031.72
2017-01-17T07:32:25.286Z,1031.72
2017-01-17T07:33:34.386Z,1031.72
2017-01-17T07:34:43.527Z,1031.67
2017-01-17T07:35:53.044Z,1031.68
2017-01-17T07:37:02.713Z,1031.68
2017-01-17T07:38:11.874Z,1031.65
2017-01-17T07:39:20.975Z,1031.63
2017-01-17T07:40:30.076Z,1031.67
2017-01-17T07:41:39.471Z,1031.63
2017-01-17T07:42:49.383Z,1031.66
2017-01-17T07:43:58.087Z,1031.67
2017-01-17T07:45:07.193Z,1031.63
2017-01-17T07:46:16.268Z,1031.65
2017-01-17T07:47:25.494Z,1031.67
2017-01-17T07:48:34.697Z,1031.71
2017-01-17T07:49:43.402Z,1031.73
2017-01-17T07:50:52.091Z,1031.77
2017-01-17T07:52:01.190Z,1031.78
2017-01-17T07:53:10.571Z,1031.78
2017-01-17T07:54:19.652Z,1031.79
2017-01-17T07:55:28.744Z,1031.79
2017-01-17T07:56:38.602Z,1031.78
2017-01-17T07:57:47.677Z,1031.8
2017-01-17T07:58:57.248Z,1031.76
2017-01-17T08:00:06.348Z,1031.83
2017-01-17T08:01:15.048Z,1031.81
2017-01-17T08:02:24.544Z,1031.86
2017-01-17T08:03:33.250Z,1031.88
2017-01-17T08:04:42.645Z,1031.91
2017-01-17T08:05:51.335Z,1031.88
2017-01-17T08:07:00.797Z,1031.91
2017-01-17T08:08:10.659Z,1031.88
2017-01-17T08:09:19.330Z,1031.94
2017-01-17T08:10:28.798Z,1031.94
2017-01-17T08:11:37.482Z,1031.95
2017-01-17T08:12:46.555Z,1031.97
2017-01-17T08:13:55.765Z,1031.98
2017-01-17T08:15:05.567Z,1031.99
2017-01-17T08:16:15.875Z,1031.98
2017-01-17T08:17:25.877Z,1032
2017-01-17T08:18:35.138Z,1031.96
2017-01-17T08:19:44.634Z,1031.98
2017-01-17T08:20:54.231Z,1031.97
2017-01-17T08:22:03.742Z,1031.94
2017-01-17T08:23:13.611Z,1031.89
2017-01-17T08:24:22.700Z,1031.91
2017-01-17T08:25:31.767Z,1031.87
2017-01-17T08:26:40.486Z,1031.84
2017-01-17T08:27:50.066Z,1031.82
2017-01-17T08:28:59.186Z,1031.81
2017-01-17T08:30:08.274Z,1031.84
2017-01-17T08:31:17.370Z,1031.8
2017-01-17T08:32:26.464Z,1031.84
2017-01-17T08:33:35.543Z,1031.83
2017-01-17T08:34:44.256Z,1031.83
2017-01-17T08:35:53.340Z,1031.85
2017-01-17T08:37:02.464Z,1031.85
2017-01-17T08:38:11.586Z,1031.87
2017-01-17T08:39:20.368Z,1031.92
2017-01-17T08:40:29.919Z,1031.91
2017-01-17T08:41:39.015Z,1031.93
2017-01-17T08:42:47.752Z,1031.94
2017-01-17T08:43:56.876Z,1031.95
2017-01-17T08:45:05.567Z,1031.96
2017-01-17T08:46:14.653Z,1031.96
2017-01-17T08:47:24.536Z,1031.99
2017-01-17T08:48:34.439Z,1032.04
2017-01-17T08:49:43.131Z,1032.05
2017-01-17T08:50:53.077Z,1032.08
2017-01-17T08:52:01.761Z,1032.07
2017-01-17T08:53:11.662Z,1032.1
2017-01-17T08:54:20.759Z,1032.08
2017-01-17T08:55:29.838Z,1032.08
2017-01-17T08:56:38.969Z,1032.09
2017-01-17T08:57:47.664Z,1032.12
2017-01-17T08:58:56.359Z,1032.09
2017-01-17T09:00:05.442Z,1032.1
2017-01-17T09:01:14.519Z,1032.07
2017-01-17T09:02:23.698Z,1032.06
2017-01-17T09:03:33.215Z,1032.01
2017-01-17T09:04:42.296Z,1032.04
2017-01-17T09:05:51.379Z,1032.01
2017-01-17T09:07:00.471Z,1031.99
2017-01-17T09:08:09.696Z,1032
2017-01-17T09:09:19.175Z,1031.95
2017-01-17T09:10:28.293Z,1032.01
2017-01-17T09:11:37.376Z,1032.02
2017-01-17T09:12:46.068Z,1031.99
2017-01-17T09:13:55.105Z,1032.03
2017-01-17T09:15:04.188Z,1032.06
2017-01-17T09:16:13.283Z,1032.08
2017-01-17T09:17:22.363Z,1032.06
2017-01-17T09:18:31.465Z,1032.09
2017-01-17T09:19:40.983Z,1032.07
2017-01-17T09:20:50.452Z,1032.09
2017-01-17T09:21:59.910Z,1032.14
2017-01-17T09:23:09.407Z,1032.11
2017-01-17T09:24:19.308Z,1032.2
2017-01-17T09:25:28.351Z,1032.14
2017-01-17T09:26:37.822Z,1032.18
2017-01-17T09:27:47.683Z,1032.19
2017-01-17T09:28:56.844Z,1032.17
2017-01-17T09:30:05.925Z,1032.17
2017-01-17T09:31:15.396Z,1032.12
2017-01-17T09:32:24.880Z,1032.13
2017-01-17T09:33:33.570Z,1032.1
2017-01-17T09:34:43.805Z,1032.15
2017-01-17T09:35:52.497Z,1032.15
2017-01-17T09:37:01.201Z,1032.12
2017-01-17T09:38:10.305Z,1032.14
2017-01-17T09:39:19.008Z,1032.26
2017-01-17T09:40:28.482Z,1032.29
2017-01-17T09:41:37.565Z,1032.29
2017-01-17T09:42:47.041Z,1032.34
2017-01-17T09:43:56.115Z,1032.35
2017-01-17T09:45:04.807Z,1032.41
2017-01-17T09:46:13.937Z,1032.43
2017-01-17T09:47:23.015Z,1032.46
2017-01-17T09:48:32.247Z,1032.48
2017-01-17T09:49:41.710Z,1032.49
2017-01-17T09:50:51.185Z,1032.49
2017-01-17T09:52:01.038Z,1032.46
2017-01-17T09:53:10.114Z,1032.48
2017-01-17T09:54:19.141Z,1032.53
2017-01-17T09:55:28.245Z,1032.51
2017-01-17T09:56:36.979Z,1032.51
2017-01-17T09:57:46.064Z,1032.46
2017-01-17T09:58:55.154Z,1032.48
2017-01-17T10:00:04.578Z,1032.51
2017-01-17T10:01:13.674Z,1032.5
2017-01-17T10:02:23.547Z,1032.56
2017-01-17T10:03:33.417Z,1032.57
2017-01-17T10:04:42.121Z,1032.6
2017-01-17T10:05:51.581Z,1032.61
2017-01-17T10:07:01.052Z,1032.62
2017-01-17T10:08:10.140Z,1032.63
2017-01-17T10:09:18.840Z,1032.64
2017-01-17T10:10:28.331Z,1032.69
2017-01-17T10:11:37.384Z,1032.66
2017-01-17T10:12:46.477Z,1032.65
2017-01-17T10:13:55.568Z,1032.68
2017-01-17T10:15:04.650Z,1032.67
2017-01-17T10:16:14.150Z,1032.63
2017-01-17T10:17:23.742Z,1032.62
2017-01-17T10:18:32.840Z,1032.61
2017-01-17T10:19:41.978Z,1032.63
2017-01-17T10:20:51.439Z,1032.62
2017-01-17T10:22:00.127Z,1032.63
2017-01-17T10:23:09.512Z,1032.68
2017-01-17T10:24:19.003Z,1032.76
2017-01-17T10:25:27.715Z,1032.73
2017-01-17T10:26:36.403Z,1032.69
2017-01-17T10:27:46.266Z,1032.69
2017-01-17T10:28:55.095Z,1032.69
2017-01-17T10:30:04.955Z,1032.72
2017-01-17T10:31:14.470Z,1032.69
2017-01-17T10:32:23.579Z,1032.69
2017-01-17T10:33:33.065Z,1032.68
2017-01-17T10:34:42.109Z,1032.69
2017-01-17T10:35:50.807Z,1032.7
2017-01-17T10:36:59.896Z,1032.68
2017-01-17T10:38:09.780Z,1032.64
2017-01-17T10:39:19.665Z,1032.59
2017-01-17T10:40:29.041Z,1032.57
2017-01-17T10:41:38.125Z,1032.6
2017-01-17T10:42:47.614Z,1032.57
2017-01-17T10:43:56.715Z,1032.63
2017-01-17T10:45:06.216Z,1032.65
2017-01-17T10:46:14.999Z,1032.72
2017-01-17T10:47:24.084Z,1032.79
2017-01-17T10:48:32.801Z,1032.74
2017-01-17T10:49:41.908Z,1032.72
2017-01-17T10:50:50.983Z,1032.7
2017-01-17T10:52:00.459Z,1032.69
2017-01-17T10:53:09.153Z,1032.66
2017-01-17T10:54:18.620Z,1032.66
2017-01-17T10:55:28.105Z,1032.63
2017-01-17T10:56:37.569Z,1032.65
2017-01-17T10:57:46.641Z,1032.62
2017-01-17T10:58:55.343Z,1032.62
2017-01-17T11:00:04.030Z,1032.62
2017-01-17T11:01:13.503Z,1032.61
2017-01-17T11:02:22.572Z,1032.6
2017-01-17T11:03:31.968Z,1032.6
2017-01-17T11:04:41.097Z,1032.63
2017-01-17T11:05:50.176Z,1032.66
2017-01-17T11:07:00.052Z,1032.66
2017-01-17T11:08:09.139Z,1032.64
2017-01-17T11:09:18.600Z,1032.62
2017-01-17T11:10:27.714Z,1032.64
2017-01-17T11:11:36.788Z,1032.67
2017-01-17T11:12:46.266Z,1032.65
2017-01-17T11:13:55.336Z,1032.64
2017-01-17T11:15:04.036Z,1032.61
2017-01-17T11:16:13.165Z,1032.57
2017-01-17T11:17:22.244Z,1032.59
2017-01-17T11:18:31.330Z,1032.6
2017-01-17T11:19:40.699Z,1032.62
2017-01-17T11:20:49.402Z,1032.59
2017-01-17T11:21:58.873Z,1032.6
2017-01-17T11:23:08.366Z,1032.57
2017-01-17T11:24:17.462Z,1032.59
2017-01-17T11:25:26.542Z,1032.61
2017-01-17T11:26:36.011Z,1032.63
2017-01-17T11:27:45.932Z,1032.62
2017-01-17T11:28:54.636Z,1032.69
2017-01-17T11:30:03.348Z,1032.7
2017-01-17T11:31:12.041Z,1032.66
2017-01-17T11:32:21.609Z,1032.65
2017-01-17T11:33:30.320Z,1032.66
2017-01-17T11:34:39.793Z,1032.65
2017-01-17T11:35:48.927Z,1032.65
2017-01-17T11:36:58.048Z,1032.69
2017-01-17T11:38:06.838Z,1032.63
2017-01-17T11:39:16.323Z,1032.62
2017-01-17T11:40:26.581Z,1032.64
2017-01-17T11:41:35.670Z,1032.63
2017-01-17T11:42:44.784Z,1032.6
2017-01-17T11:43:54.050Z,1032.58
2017-01-17T11:45:02.766Z,1032.56
2017-01-17T11:46:12.241Z,1032.54
2017-01-17T11:47:22.120Z,1032.5
2017-01-17T11:48:31.212Z,1032.56
2017-01-17T11:49:40.691Z,1032.53
2017-01-17T11:50:50.612Z,1032.51
2017-01-17T11:51:59.701Z,1032.48
2017-01-17T11:53:09.185Z,1032.47
2017-01-17T11:54:18.267Z,1032.46
2017-01-17T11:55:28.075Z,1032.46
2017-01-17T11:56:37.181Z,1032.47
2017-01-17T11:57:45.861Z,1032.43
2017-01-17T11:58:54.598Z,1032.44
2017-01-17T12:00:03.696Z,1032.43
2017-01-17T12:01:13.083Z,1032.47
2017-01-17T12:02:22.158Z,1032.53
2017-01-17T12:03:31.226Z,1032.51
2017-01-17T12:04:40.687Z,1032.46
2017-01-17T12:05:50.181Z,1032.45
2017-01-17T12:06:59.356Z,1032.46
2017-01-17T12:08:08.441Z,1032.42
2017-01-17T12:09:17.914Z,1032.39
2017-01-17T12:10:26.995Z,1032.37
2017-01-17T12:11:35.710Z,1032.33
2017-01-17T12:12:45.091Z,1032.32
2017-01-17T12:13:54.182Z,1032.29
2017-01-17T12:15:03.653Z,1032.31
2017-01-17T12:16:13.517Z,1032.33
2017-01-17T12:17:22.593Z,1032.3
2017-01-17T12:18:31.442Z,1032.29
2017-01-17T12:19:40.914Z,1032.29
2017-01-17T12:20:50.004Z,1032.33
2017-01-17T12:21:59.098Z,1032.32
2017-01-17T12:23:08.569Z,1032.36
2017-01-17T12:24:18.066Z,1032.36
2017-01-17T12:25:27.567Z,1032.36
2017-01-17T12:26:36.269Z,1032.34
2017-01-17T12:27:45.374Z,1032.31
2017-01-17T12:28:54.446Z,1032.3
2017-01-17T12:30:03.485Z,1032.31
2017-01-17T12:31:12.170Z,1032.36
2017-01-17T12:32:21.251Z,1032.37
2017-01-17T12:33:30.332Z,1032.35
2017-01-17T12:34:39.410Z,1032.35
2017-01-17T12:35:48.882Z,1032.38
2017-01-17T12:36:57.569Z,1032.39
2017-01-17T12:38:07.043Z,1032.35
2017-01-17T12:39:15.724Z,1032.3
2017-01-17T12:40:25.200Z,1032.34
2017-01-17T12:41:34.280Z,1032.33
2017-01-17T12:42:43.378Z,1032.33
2017-01-17T12:43:52.067Z,1032.32
2017-01-17T12:45:01.551Z,1032.28
2017-01-17T12:46:10.688Z,1032.3
2017-01-17T12:47:19.621Z,1032.26
2017-01-17T12:48:28.320Z,1032.28
2017-01-17T12:49:38.181Z,1032.24
2017-01-17T12:50:46.905Z,1032.21
2017-01-17T12:51:55.592Z,1032.22
2017-01-17T12:53:04.326Z,1032.21
2017-01-17T12:54:13.444Z,1032.18
2017-01-17T12:55:22.145Z,1032.17
2017-01-17T12:56:31.214Z,1032.19
2017-01-17T12:57:39.901Z,1032.17
2017-01-17T12:58:49.289Z,1032.14
2017-01-17T12:59:58.764Z,1032.1
2017-01-17T13:01:08.238Z,1032.11
2017-01-17T13:02:16.943Z,1032.1
2017-01-17T13:03:25.635Z,1032.14
2017-01-17T13:04:34.843Z,1032.12
2017-01-17T13:05:43.967Z,1032.09
2017-01-17T13:06:53.450Z,1032.07
2017-01-17T13:08:03.622Z,1032.02
2017-01-17T13:09:12.326Z,1032
2017-01-17T13:10:22.150Z,1031.97
2017-01-17T13:11:31.259Z,1031.93
2017-01-17T13:12:40.344Z,1031.9
2017-01-17T13:13:50.219Z,1031.92
2017-01-17T13:15:00.101Z,1031.89
2017-01-17T13:16:09.182Z,1031.87
2017-01-17T13:17:17.950Z,1031.92
2017-01-17T13:18:27.804Z,1031.87
2017-01-17T13:19:36.994Z,1031.83
2017-01-17T13:20:46.104Z,1031.85
2017-01-17T13:21:54.804Z,1031.87
2017-01-17T13:23:03.526Z,1031.83
2017-01-17T13:24:12.628Z,1031.84
2017-01-17T13:25:22.111Z,1031.76
2017-01-17T13:26:31.602Z,1031.89
2017-01-17T13:27:40.694Z,1031.89
2017-01-17T13:28:49.776Z,1031.88
2017-01-17T13:29:59.254Z,1031.91
2017-01-17T13:31:08.761Z,1031.93
2017-01-17T13:32:17.454Z,1032
2017-01-17T13:33:26.936Z,1031.98
2017-01-17T13:34:35.699Z,1032.01
2017-01-17T13:35:44.425Z,1032.04
2017-01-17T13:36:53.514Z,1032.05
2017-01-17T13:38:02.190Z,1032.08
2017-01-17T13:39:10.871Z,1032.13
2017-01-17T13:40:19.586Z,1032.12
2017-01-17T13:41:28.664Z,1032.15
2017-01-17T13:42:37.741Z,1032.2
2017-01-17T13:43:46.446Z,1032.14
2017-01-17T13:44:55.150Z,1032.15
2017-01-17T13:46:04.367Z,1032.1
2017-01-17T13:47:13.836Z,1032.1
2017-01-17T13:48:23.694Z,1032.11
2017-01-17T13:49:33.168Z,1032.08
2017-01-17T13:50:42.641Z,1032.17
2017-01-17T13:51:52.492Z,1032.15
2017-01-17T13:53:01.964Z,1032.09
2017-01-17T13:54:11.039Z,1032.14
2017-01-17T13:55:20.120Z,1032.13
2017-01-17T13:56:29.587Z,1032.12
2017-01-17T13:57:38.280Z,1032.13
2017-01-17T13:58:47.355Z,1032.13
2017-01-17T13:59:56.817Z,1032.16